Time;durP1;ratioP1;P1;durP2;ratioP2;P2;SDS_P1;SDS_P2;PMS_P1;PMS_P2;Temp;Humidity;BMP_temperature;BMP_pressure;BME280_temperature;BME280_humidity;BME280_pressure;Samples;Min_cycle;Max_cycle;Signal;HPM_P1;HPM_P2
2021/06/14 00:00:29;;;;;;;4.30;4.00;;;14.30;99.90;;;;;;4844055;29;20492;-94
2021/06/14 00:02:55;;;;;;;4.97;4.20;;;14.20;99.90;;;;;;4844878;29;20561;-95
2021/06/14 00:05:40;;;;;;;4.97;4.47;;;14.10;99.90;;;;;;4843227;29;20503;-95
2021/06/14 00:08:16;;;;;;;4.70;4.20;;;14.10;99.90;;;;;;4842039;29;20714;-96
2021/06/14 00:10:49;;;;;;;4.73;4.33;;;14.00;99.90;;;;;;4839542;29;20456;-95
2021/06/14 00:13:16;;;;;;;7.70;4.40;;;13.90;99.90;;;;;;4848185;29;20484;-95
2021/06/14 00:15:46;;;;;;;5.47;4.47;;;13.90;99.90;;;;;;4831085;29;20448;-96
2021/06/14 00:18:18;;;;;;;4.83;4.33;;;13.90;99.90;;;;;;4830084;29;20483;-96
2021/06/14 00:20:54;;;;;;;5.03;4.20;;;13.90;99.90;;;;;;4831058;29;20496;-95
2021/06/14 00:26:14;;;;;;;5.10;4.63;;;14.10;99.90;;;;;;4826331;29;20445;-96
2021/06/14 00:28:45;;;;;;;4.30;3.90;;;14.10;99.90;;;;;;4832169;29;20449;-96
2021/06/14 00:31:14;;;;;;;6.83;4.37;;;14.30;99.90;;;;;;4837265;29;20456;-96
2021/06/14 00:33:41;;;;;;;4.50;4.10;;;14.20;99.90;;;;;;4852262;29;20480;-96
2021/06/14 00:36:08;;;;;;;4.73;4.33;;;14.20;99.90;;;;;;4843308;29;20225;-94
2021/06/14 00:38:35;;;;;;;6.93;4.57;;;14.20;99.90;;;;;;4856161;29;20524;-96
2021/06/14 00:41:01;;;;;;;4.70;4.30;;;14.10;99.90;;;;;;4839036;29;20491;-96
2021/06/14 00:43:27;;;;;;;4.90;4.50;;;14.00;99.90;;;;;;4840152;29;20565;-96
2021/06/14 00:45:54;;;;;;;5.30;4.90;;;14.00;99.90;;;;;;4838943;29;20460;-96
2021/06/14 00:48:20;;;;;;;5.77;4.87;;;13.90;99.90;;;;;;4853829;29;20426;-96
2021/06/14 00:50:48;;;;;;;5.13;4.63;;;13.90;99.90;;;;;;4849906;29;20575;-94
2021/06/14 00:53:19;;;;;;;5.30;4.70;;;14.00;99.90;;;;;;4851963;29;20480;-95
2021/06/14 00:55:47;;;;;;;6.27;4.40;;;13.80;99.90;;;;;;4841062;29;20449;-95
2021/06/14 00:58:13;;;;;;;5.03;4.63;;;13.60;99.90;;;;;;4837813;29;20461;-95
2021/06/14 01:00:39;;;;;;;5.53;5.03;;;13.50;99.90;;;;;;4840297;29;20585;-94
2021/06/14 01:03:09;;;;;;;4.90;4.53;;;13.30;99.90;;;;;;4828360;29;20471;-95
2021/06/14 01:05:39;;;;;;;6.67;4.43;;;13.20;99.90;;;;;;4821665;29;20481;-95
2021/06/14 01:08:09;;;;;;;5.90;5.40;;;13.20;99.90;;;;;;4816009;29;20467;-94
2021/06/14 01:10:37;;;;;;;4.80;4.33;;;13.20;99.90;;;;;;4818593;29;20547;-96
2021/06/14 01:13:14;;;;;;;6.20;4.77;;;13.20;99.90;;;;;;4825344;29;20459;-95
2021/06/14 01:15:59;;;;;;;5.37;4.80;;;13.20;99.90;;;;;;4830327;29;20952;-95
2021/06/14 01:18:49;;;;;;;5.40;4.90;;;13.10;99.90;;;;;;4819347;29;20452;-96
2021/06/14 01:21:39;;;;;;;7.70;4.70;;;12.80;99.90;;;;;;4849263;29;20526;-95
2021/06/14 01:24:40;;;;;;;4.70;4.33;;;12.60;99.90;;;;;;4837524;29;20525;-95
2021/06/14 01:27:12;;;;;;;4.90;4.50;;;12.60;99.90;;;;;;4852942;29;20453;-96
2021/06/14 01:29:44;;;;;;;5.77;4.70;;;12.60;99.90;;;;;;4851706;29;20449;-95
2021/06/14 01:32:13;;;;;;;5.03;4.43;;;12.70;99.90;;;;;;4833196;29;20480;-96
2021/06/14 01:34:42;;;;;;;6.13;4.57;;;12.70;99.90;;;;;;4834484;29;20520;-96
2021/06/14 01:37:26;;;;;;;7.23;5.03;;;12.60;99.90;;;;;;4837620;29;20479;-96
2021/06/14 01:40:22;;;;;;;4.53;4.17;;;12.50;99.90;;;;;;4827055;29;20499;-96
2021/06/14 01:43:00;;;;;;;4.80;4.40;;;12.70;99.90;;;;;;4839694;29;20484;-95
2021/06/14 01:45:34;;;;;;;5.80;4.60;;;12.80;99.90;;;;;;4829305;29;20452;-96
2021/06/14 01:48:31;;;;;;;4.90;4.50;;;12.80;99.90;;;;;;4834361;29;20456;-96
2021/06/14 01:51:27;;;;;;;6.30;4.80;;;12.60;99.90;;;;;;4837748;29;20489;-95
2021/06/14 01:54:26;;;;;;;4.77;4.23;;;12.40;99.90;;;;;;4854990;29;20452;-96
2021/06/14 01:57:14;;;;;;;6.47;5.83;;;12.20;99.90;;;;;;4838375;29;20464;-96
2021/06/14 01:59:41;;;;;;;5.20;4.67;;;12.00;99.90;;;;;;4832740;29;20804;-95
2021/06/14 02:02:08;;;;;;;6.97;4.63;;;12.10;99.90;;;;;;4844078;29;20449;-95
2021/06/14 02:04:35;;;;;;;5.70;5.10;;;12.20;99.90;;;;;;4830754;29;20453;-96
2021/06/14 02:07:05;;;;;;;5.77;5.10;;;12.10;99.90;;;;;;4842680;29;20460;-95
2021/06/14 02:09:33;;;;;;;5.17;4.73;;;12.00;99.90;;;;;;4828844;29;20445;-95
2021/06/14 02:12:04;;;;;;;7.67;5.50;;;12.00;99.90;;;;;;4829858;29;20541;-96
2021/06/14 02:14:37;;;;;;;5.37;4.63;;;12.00;99.90;;;;;;4825521;29;20449;-95
2021/06/14 02:17:17;;;;;;;5.80;4.80;;;12.10;99.90;;;;;;4845511;29;20449;-94
2021/06/14 02:19:51;;;;;;;6.03;5.40;;;12.20;99.90;;;;;;4845737;29;20488;-96
2021/06/14 02:22:18;;;;;;;4.90;4.50;;;12.20;99.90;;;;;;4852101;29;20564;-96
2021/06/14 02:24:44;;;;;;;4.73;4.23;;;12.10;99.90;;;;;;4847902;29;20460;-95
2021/06/14 02:27:12;;;;;;;5.03;4.13;;;12.00;99.90;;;;;;4835212;29;20827;-96
2021/06/14 02:29:39;;;;;;;6.13;4.57;;;12.00;99.90;;;;;;4820783;29;20677;-96
2021/06/14 02:32:05;;;;;;;5.00;4.60;;;11.90;99.90;;;;;;4821682;29;20471;-96
2021/06/14 02:34:31;;;;;;;5.43;4.87;;;11.80;99.90;;;;;;4838201;29;20813;-95
2021/06/14 02:36:57;;;;;;;7.83;4.40;;;11.70;99.90;;;;;;4837194;29;20495;-96
2021/06/14 02:39:29;;;;;;;5.00;4.50;;;11.70;99.90;;;;;;4833772;29;20492;-96
2021/06/14 02:41:55;;;;;;;4.53;4.13;;;11.70;99.90;;;;;;4840471;29;20476;-96
2021/06/14 02:47:05;;;;;;;5.27;4.47;;;11.90;99.90;;;;;;4833917;29;20517;-95
2021/06/14 02:49:50;;;;;;;5.40;4.90;;;12.10;99.90;;;;;;4835883;29;20480;-95
2021/06/14 02:52:17;;;;;;;6.20;4.90;;;11.90;99.90;;;;;;4816002;29;20525;-95
2021/06/14 02:55:13;;;;;;;5.80;4.00;;;11.80;99.90;;;;;;4811351;29;20441;-94
2021/06/14 02:57:43;;;;;;;6.53;4.50;;;11.80;99.90;;;;;;4825836;29;20453;-94
2021/06/14 03:00:10;;;;;;;4.87;4.10;;;11.80;99.90;;;;;;4807986;29;21100;-94
2021/06/14 03:02:37;;;;;;;4.40;3.87;;;11.80;99.90;;;;;;4818170;29;20797;-95
2021/06/14 03:05:03;;;;;;;4.10;3.80;;;11.80;99.90;;;;;;4829101;29;20473;-94
2021/06/14 03:07:29;;;;;;;6.33;5.20;;;11.80;99.90;;;;;;4829089;29;20467;-94
2021/06/14 03:09:55;;;;;;;5.73;5.23;;;11.90;99.90;;;;;;4808540;29;20468;-95
2021/06/14 03:12:23;;;;;;;5.67;5.13;;;11.90;99.90;;;;;;4826624;29;20207;-95
2021/06/14 03:14:52;;;;;;;6.77;5.40;;;12.00;99.90;;;;;;4832047;29;20459;-95
2021/06/14 03:17:22;;;;;;;6.27;4.93;;;12.00;99.90;;;;;;4811621;29;20558;-94
2021/06/14 03:19:52;;;;;;;5.00;4.50;;;12.00;99.90;;;;;;4835551;29;20520;-95
2021/06/14 03:22:20;;;;;;;6.07;5.47;;;12.10;99.90;;;;;;4829907;29;21030;-94
2021/06/14 03:24:46;;;;;;;6.77;6.10;;;12.10;99.90;;;;;;4816986;29;20594;-95
2021/06/14 03:27:15;;;;;;;6.00;5.50;;;12.10;99.90;;;;;;4831707;29;21215;-94
2021/06/14 03:29:43;;;;;;;6.60;5.97;;;12.00;99.90;;;;;;4834308;29;20210;-95
2021/06/14 03:32:09;;;;;;;6.30;5.77;;;12.00;99.90;;;;;;4828874;29;20464;-95
2021/06/14 03:34:36;;;;;;;4.93;4.53;;;11.80;99.90;;;;;;4830394;29;20489;-95
2021/06/14 03:37:03;;;;;;;5.67;5.17;;;11.80;99.90;;;;;;4813692;29;20474;-94
2021/06/14 03:39:29;;;;;;;6.70;4.87;;;11.70;99.90;;;;;;4826388;29;20491;-95
2021/06/14 03:41:55;;;;;;;9.63;4.63;;;11.70;99.90;;;;;;4827467;29;20820;-94
2021/06/14 03:44:25;;;;;;;5.70;4.93;;;11.60;99.90;;;;;;4825362;29;20227;-94
2021/06/14 03:46:55;;;;;;;5.60;4.93;;;11.60;99.90;;;;;;4819012;29;20218;-95
2021/06/14 03:49:21;;;;;;;6.17;5.57;;;11.60;99.90;;;;;;4820771;29;20825;-95
2021/06/14 03:51:52;;;;;;;5.13;4.60;;;11.50;99.90;;;;;;4833397;29;20724;-95
2021/06/14 03:54:24;;;;;;;5.17;4.67;;;11.60;99.90;;;;;;4820033;29;20234;-95
2021/06/14 03:56:50;;;;;;;5.77;5.23;;;11.80;99.90;;;;;;4815665;29;20455;-95
2021/06/14 03:59:15;;;;;;;4.93;4.40;;;11.80;99.90;;;;;;4830765;29;20469;-95
2021/06/14 04:01:51;;;;;;;4.80;4.30;;;11.80;99.90;;;;;;4816651;29;20294;-95
2021/06/14 04:07:15;;;;;;;5.83;5.23;;;11.70;99.90;;;;;;4829365;29;20478;-96
2021/06/14 04:09:44;;;;;;;5.60;5.10;;;11.70;99.90;;;;;;4843394;29;20512;-96
2021/06/14 04:12:12;;;;;;;5.53;4.30;;;11.70;99.90;;;;;;4821122;29;20452;-95
2021/06/14 04:14:48;;;;;;;6.60;4.50;;;11.80;99.90;;;;;;4834366;29;20511;-95
2021/06/14 04:17:17;;;;;;;5.00;4.60;;;12.00;99.90;;;;;;4839350;29;20468;-96
2021/06/14 04:19:49;;;;;;;5.43;4.93;;;12.10;99.90;;;;;;4844079;29;20570;-96
2021/06/14 04:22:15;;;;;;;7.30;5.63;;;12.20;99.90;;;;;;4835433;29;20453;-93
2021/06/14 04:24:41;;;;;;;6.83;4.70;;;12.30;99.90;;;;;;4841827;29;20453;-95
2021/06/14 04:27:07;;;;;;;5.30;4.80;;;12.50;99.90;;;;;;4834633;29;20655;-96
2021/06/14 04:29:34;;;;;;;6.50;4.90;;;12.60;99.90;;;;;;4853895;29;20549;-96
2021/06/14 04:32:00;;;;;;;6.17;4.70;;;12.70;99.90;;;;;;4843720;29;20502;-95
2021/06/14 04:34:27;;;;;;;5.97;5.10;;;12.80;99.90;;;;;;4832978;29;20449;-94
2021/06/14 04:36:53;;;;;;;6.70;4.93;;;12.80;99.90;;;;;;4826568;29;20223;-96
2021/06/14 04:39:21;;;;;;;5.43;4.93;;;13.00;99.90;;;;;;4842721;29;20485;-96
2021/06/14 04:41:46;;;;;;;6.27;5.10;;;13.00;99.90;;;;;;4848051;29;20517;-96
2021/06/14 04:44:15;;;;;;;5.67;5.07;;;13.00;99.90;;;;;;4837351;29;20536;-96
2021/06/14 04:46:40;;;;;;;7.33;5.67;;;13.10;99.90;;;;;;4830213;29;21716;-96
2021/06/14 04:49:06;;;;;;;7.07;4.77;;;13.20;99.90;;;;;;4830486;29;20456;-95
2021/06/14 04:51:34;;;;;;;5.67;4.70;;;13.30;99.90;;;;;;4828974;29;20192;-96
2021/06/14 04:54:00;;;;;;;5.13;4.23;;;13.40;99.90;;;;;;4828710;29;20195;-95
2021/06/14 04:56:25;;;;;;;5.93;5.33;;;13.40;99.90;;;;;;4827111;29;20460;-96
2021/06/14 04:58:52;;;;;;;5.83;4.70;;;13.50;99.90;;;;;;4814741;29;20274;-96
2021/06/14 05:01:18;;;;;;;5.20;4.53;;;13.60;99.90;;;;;;4815559;29;20313;-96
2021/06/14 05:03:51;;;;;;;5.77;5.17;;;13.70;99.90;;;;;;4815088;29;21073;-95
2021/06/14 05:06:16;;;;;;;6.23;4.97;;;13.70;99.90;;;;;;4817147;29;20303;-96
2021/06/14 05:08:43;;;;;;;6.10;4.73;;;13.80;99.90;;;;;;4831019;29;21051;-96
2021/06/14 05:11:11;;;;;;;8.50;4.97;;;13.80;99.90;;;;;;4815938;29;20191;-95
2021/06/14 05:13:39;;;;;;;5.27;4.73;;;13.90;99.90;;;;;;4833690;29;20634;-95
2021/06/14 05:16:05;;;;;;;4.70;4.30;;;14.10;99.90;;;;;;4834341;29;20516;-96
2021/06/14 05:18:31;;;;;;;7.43;5.10;;;14.20;99.90;;;;;;4834921;29;20857;-96
2021/06/14 05:20:56;;;;;;;7.33;4.57;;;14.30;99.90;;;;;;4829795;29;20231;-96
2021/06/14 05:23:24;;;;;;;5.80;4.10;;;14.40;99.90;;;;;;4829217;29;20208;-96
2021/06/14 05:25:56;;;;;;;4.97;4.57;;;14.40;99.90;;;;;;4829755;29;20207;-96
2021/06/14 05:28:23;;;;;;;5.03;4.47;;;14.50;99.90;;;;;;4818121;29;20532;-95
2021/06/14 05:30:55;;;;;;;4.70;4.13;;;14.60;99.90;;;;;;4814675;29;20476;-96
2021/06/14 05:33:21;;;;;;;4.90;4.43;;;14.60;99.90;;;;;;4815249;29;20441;-96
2021/06/14 05:35:47;;;;;;;5.67;4.70;;;14.70;99.90;;;;;;4813229;29;20574;-95
2021/06/14 05:38:14;;;;;;;5.27;4.77;;;14.70;99.90;;;;;;4817667;29;20188;-95
2021/06/14 05:40:41;;;;;;;9.83;5.33;;;14.80;99.90;;;;;;4817353;29;20524;-96
2021/06/14 05:43:12;;;;;;;4.90;4.50;;;14.80;99.90;;;;;;4819871;29;20464;-96
2021/06/14 05:45:41;;;;;;;5.10;4.70;;;14.90;99.90;;;;;;4817653;29;21152;-96
2021/06/14 05:48:08;;;;;;;5.90;4.00;;;15.00;99.90;;;;;;4831048;29;20543;-96
2021/06/14 05:50:36;;;;;;;6.73;4.60;;;15.10;99.90;;;;;;4829341;29;20814;-96
2021/06/14 05:53:04;;;;;;;4.90;4.30;;;15.10;99.90;;;;;;4816293;29;20496;-93
2021/06/14 05:55:30;;;;;;;5.23;4.73;;;15.20;99.90;;;;;;4814466;29;20480;-95
2021/06/14 05:57:57;;;;;;;6.80;5.00;;;15.30;99.90;;;;;;4815596;29;20449;-96
2021/06/14 06:00:23;;;;;;;6.03;4.50;;;15.30;99.90;;;;;;4827373;29;20235;-96
2021/06/14 06:02:48;;;;;;;6.57;4.53;;;15.40;99.90;;;;;;4832200;29;20846;-95
2021/06/14 06:05:16;;;;;;;5.97;5.40;;;15.40;99.90;;;;;;4815819;29;20464;-96
2021/06/14 06:07:42;;;;;;;8.20;5.50;;;15.50;99.90;;;;;;4830348;29;20645;-96
2021/06/14 06:10:11;;;;;;;5.53;4.83;;;15.70;99.90;;;;;;4815065;29;20483;-95
2021/06/14 06:12:38;;;;;;;6.67;4.70;;;15.80;99.90;;;;;;4830752;29;20488;-95
2021/06/14 06:15:11;;;;;;;6.83;5.37;;;15.90;99.90;;;;;;4817475;29;20449;-96
2021/06/14 06:17:57;;;;;;;8.83;5.10;;;15.90;99.90;;;;;;4818138;29;20871;-95
2021/06/14 06:20:23;;;;;;;5.63;5.03;;;16.10;99.90;;;;;;4833042;29;20499;-95
2021/06/14 06:22:49;;;;;;;6.90;5.50;;;16.20;99.90;;;;;;4817612;29;20203;-96
2021/06/14 06:25:19;;;;;;;6.13;5.53;;;16.20;99.90;;;;;;4821081;29;21665;-95
2021/06/14 06:27:48;;;;;;;5.57;4.90;;;16.40;99.90;;;;;;4831744;29;20460;-96
2021/06/14 06:30:19;;;;;;;5.63;4.70;;;16.50;99.90;;;;;;4818035;29;20469;-95
2021/06/14 06:32:46;;;;;;;5.97;5.10;;;16.60;99.90;;;;;;4822649;29;20453;-95
2021/06/14 06:35:19;;;;;;;5.13;4.67;;;16.80;99.90;;;;;;4817602;29;20488;-96
2021/06/14 06:38:15;;;;;;;4.70;4.20;;;16.80;99.90;;;;;;4832501;29;20542;-94
2021/06/14 06:40:48;;;;;;;8.13;4.80;;;16.90;99.90;;;;;;4824214;29;20485;-96
2021/06/14 06:43:35;;;;;;;7.67;5.00;;;17.00;99.90;;;;;;4838277;29;20452;-95
2021/06/14 06:48:46;;;;;;;5.10;4.60;;;17.20;99.90;;;;;;4823790;29;20527;-96
2021/06/14 06:51:13;;;;;;;8.43;4.40;;;17.40;99.90;;;;;;4835470;29;20445;-96
2021/06/14 06:54:21;;;;;;;;;;;;;;;;;;;;;
2021/06/14 06:56:53;;;;;;;4.83;4.13;;;17.70;99.90;;;;;;4817349;29;20468;-94
2021/06/14 06:59:30;;;;;;;7.07;4.07;;;17.80;99.90;;;;;;4834438;29;20441;-95
2021/06/14 07:02:01;;;;;;;8.07;4.00;;;17.90;99.90;;;;;;4815519;29;20529;-92
2021/06/14 07:04:41;;;;;;;7.10;4.30;;;18.00;99.90;;;;;;4815724;29;20453;-93
2021/06/14 07:09:56;;;;;;;6.40;4.30;;;18.10;99.90;;;;;;4815288;29;20441;-94
2021/06/14 07:12:23;;;;;;;5.77;4.07;;;18.30;99.90;;;;;;4816483;29;21220;-94
2021/06/14 07:14:50;;;;;;;5.10;4.10;;;18.30;99.90;;;;;;4817399;29;20205;-93
2021/06/14 07:17:16;;;;;;;5.00;4.50;;;18.50;99.90;;;;;;4817778;29;20505;-94
2021/06/14 07:19:43;;;;;;;4.47;4.03;;;18.60;99.90;;;;;;4835033;29;20609;-93
2021/06/14 07:22:13;;;;;;;4.53;4.10;;;18.60;99.80;;;;;;4821065;29;20472;-94
2021/06/14 07:24:52;;;;;;;4.50;4.10;;;18.60;99.90;;;;;;4828649;29;20956;-94
2021/06/14 07:27:31;;;;;;;5.13;4.10;;;18.70;98.80;;;;;;4816961;29;20456;-92
2021/06/14 07:30:12;;;;;;;4.40;3.40;;;18.90;99.30;;;;;;4826591;29;20465;-93
2021/06/14 07:32:46;;;;;;;4.27;3.80;;;19.00;98.00;;;;;;4826167;29;21283;-94
2021/06/14 07:35:35;;;;;;;4.33;3.80;;;19.10;98.70;;;;;;4827563;29;20515;-93
2021/06/14 07:38:07;;;;;;;6.10;4.33;;;19.10;97.10;;;;;;4813307;29;20472;-93
2021/06/14 07:43:18;;;;;;;5.60;4.00;;;19.50;98.50;;;;;;4815397;29;20518;-94
2021/06/14 07:45:46;;;;;;;4.27;3.40;;;19.60;98.60;;;;;;4814398;29;20472;-93
2021/06/14 07:48:13;;;;;;;4.70;4.00;;;19.60;97.30;;;;;;4830088;29;20449;-93
2021/06/14 07:50:42;;;;;;;4.90;3.57;;;19.70;97.40;;;;;;4816473;29;20444;-94
2021/06/14 07:53:08;;;;;;;6.00;3.87;;;19.80;96.60;;;;;;4812048;29;20438;-93
2021/06/14 07:55:38;;;;;;;4.03;3.13;;;19.90;96.90;;;;;;4814895;29;20480;-94
2021/06/14 07:58:10;;;;;;;3.67;3.27;;;20.20;95.70;;;;;;4817717;29;20242;-94
2021/06/14 08:00:40;;;;;;;4.43;3.70;;;20.20;96.50;;;;;;4830534;29;20607;-93
2021/06/14 08:03:09;;;;;;;5.10;3.83;;;20.40;96.00;;;;;;4827892;29;20429;-92
2021/06/14 08:05:42;;;;;;;4.73;3.57;;;20.40;94.10;;;;;;4824360;29;20564;-92
2021/06/14 08:08:10;;;;;;;3.67;3.37;;;20.30;94.70;;;;;;4828688;29;20433;-92
2021/06/14 08:10:36;;;;;;;4.60;3.53;;;20.50;94.30;;;;;;4828813;29;20667;-93
2021/06/14 08:13:07;;;;;;;3.50;3.10;;;20.40;95.80;;;;;;4829988;29;20463;-93
2021/06/14 08:15:33;;;;;;;4.50;3.20;;;20.50;95.20;;;;;;4827716;29;20203;-93
2021/06/14 08:18:18;;;;;;;4.93;3.60;;;20.50;93.00;;;;;;4815377;29;20443;-93
2021/06/14 08:26:31;;;;;;;5.23;3.53;;;21.00;93.70;;;;;;4818603;29;20460;-93
2021/06/14 08:29:01;;;;;;;6.83;3.97;;;21.30;94.20;;;;;;4818771;29;20758;-92
2021/06/14 08:31:29;;;;;;;5.40;3.30;;;21.40;94.10;;;;;;4833972;29;20843;-88
2021/06/14 08:33:54;;;;;;;6.10;3.80;;;21.40;93.60;;;;;;4827296;29;20544;-89
2021/06/14 08:36:21;;;;;;;3.23;2.97;;;21.60;94.80;;;;;;4829838;29;22245;-89
2021/06/14 08:38:47;;;;;;;4.80;3.47;;;21.90;94.50;;;;;;4814479;29;20887;-88
2021/06/14 08:41:16;;;;;;;4.60;3.83;;;22.10;92.30;;;;;;4813794;29;20484;-88
2021/06/14 08:43:48;;;;;;;5.00;3.53;;;21.90;93.50;;;;;;4827381;29;20452;-88
2021/06/14 08:46:14;;;;;;;3.73;3.30;;;22.10;94.10;;;;;;4815958;29;20866;-88
2021/06/14 08:48:41;;;;;;;4.93;3.60;;;22.10;93.60;;;;;;4829551;29;20444;-88
2021/06/14 08:51:08;;;;;;;3.67;3.37;;;22.00;92.80;;;;;;4830867;29;20449;-88
2021/06/14 08:53:36;;;;;;;3.80;3.40;;;22.10;91.40;;;;;;4817097;29;20525;-89
2021/06/14 08:56:01;;;;;;;5.07;3.37;;;22.20;92.50;;;;;;4814641;29;20472;-88
2021/06/14 08:58:29;;;;;;;5.60;3.93;;;22.20;92.10;;;;;;4830379;29;20521;-89
2021/06/14 09:00:55;;;;;;;4.80;3.43;;;22.20;91.10;;;;;;4831336;29;20259;-88
2021/06/14 09:03:26;;;;;;;4.93;3.73;;;22.20;92.00;;;;;;4816804;29;20452;-88
2021/06/14 09:05:52;;;;;;;3.77;3.43;;;22.30;91.40;;;;;;4816685;29;20456;-88
2021/06/14 09:08:22;;;;;;;4.13;3.73;;;22.50;91.80;;;;;;4830878;29;20453;-88
2021/06/14 09:10:48;;;;;;;4.40;3.93;;;22.60;91.40;;;;;;4816391;29;20452;-88
2021/06/14 09:13:26;;;;;;;8.57;5.30;;;22.70;92.10;;;;;;4813913;29;20461;-89
2021/06/14 09:16:07;;;;;;;7.13;5.20;;;22.80;91.70;;;;;;4830432;29;20803;-89
2021/06/14 09:18:33;;;;;;;4.00;3.43;;;22.80;91.30;;;;;;4815661;29;20453;-91
2021/06/14 09:21:01;;;;;;;7.13;5.43;;;22.80;92.30;;;;;;4829217;29;20511;-89
2021/06/14 09:23:38;;;;;;;6.37;4.90;;;22.80;89.80;;;;;;4826169;29;20438;-90
2021/06/14 09:26:04;;;;;;;12.03;6.40;;;22.80;90.80;;;;;;4827673;29;20464;-90
2021/06/14 09:28:31;;;;;;;3.97;3.40;;;23.00;92.00;;;;;;4831268;29;20448;-88
2021/06/14 09:30:57;;;;;;;4.40;3.17;;;23.10;90.70;;;;;;4817033;29;20197;-88
2021/06/14 09:33:25;;;;;;;6.30;3.70;;;23.10;90.80;;;;;;4816409;29;20453;-89
2021/06/14 09:36:03;;;;;;;5.53;2.90;;;23.30;89.70;;;;;;4831135;29;20437;-90
2021/06/14 09:38:30;;;;;;;4.37;3.97;;;23.20;88.70;;;;;;4827430;29;20464;-90
2021/06/14 09:40:58;;;;;;;4.30;3.57;;;23.40;90.40;;;;;;4814864;29;21038;-89
2021/06/14 09:43:27;;;;;;;3.40;3.10;;;23.40;87.30;;;;;;4830693;29;20351;-89
2021/06/14 09:45:59;;;;;;;3.50;3.20;;;23.50;88.00;;;;;;4830182;29;20469;-90
2021/06/14 09:48:29;;;;;;;4.70;3.40;;;23.50;87.70;;;;;;4829884;29;20537;-89
2021/06/14 09:50:56;;;;;;;3.63;3.33;;;23.60;85.10;;;;;;4829737;29;20437;-90
2021/06/14 09:53:34;;;;;;;4.67;3.20;;;23.70;87.70;;;;;;4813702;29;20452;-89
2021/06/14 09:56:16;;;;;;;4.17;3.20;;;23.90;90.60;;;;;;4830280;29;20792;-89
2021/06/14 09:58:43;;;;;;;3.67;3.37;;;23.90;86.10;;;;;;4830112;29;20532;-89
2021/06/14 10:01:09;;;;;;;3.80;3.37;;;23.90;84.90;;;;;;4816247;29;20499;-90
2021/06/14 10:03:42;;;;;;;4.70;3.80;;;24.00;85.00;;;;;;4828297;29;20955;-89
2021/06/14 10:06:08;;;;;;;3.90;2.90;;;24.10;84.50;;;;;;4831606;29;21187;-90
2021/06/14 10:08:34;;;;;;;4.47;2.80;;;24.30;79.50;;;;;;4831299;29;20437;-88
2021/06/14 10:11:13;;;;;;;3.33;2.73;;;24.30;82.80;;;;;;4828890;29;20448;-88
2021/06/14 10:13:44;;;;;;;3.60;3.10;;;24.50;81.90;;;;;;4812070;29;20517;-88
2021/06/14 10:16:16;;;;;;;4.80;3.80;;;24.50;82.90;;;;;;4811455;29;20464;-88
2021/06/14 10:18:54;;;;;;;4.30;2.83;;;24.50;85.50;;;;;;4829894;29;20485;-87
2021/06/14 10:21:42;;;;;;;3.43;3.13;;;24.70;80.00;;;;;;4813845;29;20666;-88
2021/06/14 10:24:14;;;;;;;4.43;3.47;;;24.70;78.80;;;;;;4829018;29;20459;-87
2021/06/14 10:26:44;;;;;;;3.30;2.60;;;24.70;78.20;;;;;;4814872;29;20444;-87
2021/06/14 10:29:16;;;;;;;3.00;2.80;;;24.80;82.70;;;;;;4829530;29;20457;-87
2021/06/14 10:31:48;;;;;;;7.53;3.13;;;24.80;78.00;;;;;;4827760;29;20441;-87
2021/06/14 10:34:15;;;;;;;5.03;3.10;;;25.10;75.40;;;;;;4807949;29;20481;-88
2021/06/14 10:36:54;;;;;;;3.90;3.07;;;25.30;80.00;;;;;;4811699;29;20448;-88
2021/06/14 10:39:26;;;;;;;5.67;3.03;;;25.30;83.30;;;;;;4826806;29;20469;-87
2021/06/14 10:41:58;;;;;;;4.33;3.20;;;25.30;81.10;;;;;;4827136;29;21051;-87
2021/06/14 10:44:24;;;;;;;3.30;3.10;;;25.30;77.80;;;;;;4812343;29;20456;-88
2021/06/14 10:46:54;;;;;;;7.60;3.83;;;25.30;75.10;;;;;;4812830;29;20467;-88
2021/06/14 10:49:24;;;;;;;5.10;3.40;;;25.60;75.10;;;;;;4820487;29;20219;-88
2021/06/14 10:52:16;;;;;;;3.53;3.23;;;25.40;81.90;;;;;;4809422;29;20528;-87
2021/06/14 10:54:45;;;;;;;4.10;3.77;;;25.40;81.90;;;;;;4825375;29;20440;-88
2021/06/14 10:57:12;;;;;;;6.33;3.37;;;25.70;79.10;;;;;;4829114;29;20469;-88
2021/06/14 10:59:43;;;;;;;4.80;3.23;;;25.90;79.20;;;;;;4827539;29;20491;-88
2021/06/14 11:02:13;;;;;;;3.60;3.13;;;26.10;80.80;;;;;;4827669;29;20477;-88
2021/06/14 11:04:42;;;;;;;3.63;3.30;;;26.00;73.00;;;;;;4828458;29;20449;-88
2021/06/14 11:07:11;;;;;;;3.30;3.00;;;26.10;80.80;;;;;;4813871;29;20453;-88
2021/06/14 11:09:48;;;;;;;3.83;3.30;;;26.20;78.60;;;;;;4818554;29;20536;-88
2021/06/14 11:12:29;;;;;;;4.10;3.10;;;26.50;75.00;;;;;;4823997;29;20443;-88
2021/06/14 11:15:09;;;;;;;2.97;2.77;;;26.60;74.50;;;;;;4813983;29;20996;-88
2021/06/14 11:17:37;;;;;;;5.77;3.27;;;26.40;76.20;;;;;;4811830;29;20499;-88
2021/06/14 11:20:03;;;;;;;3.30;3.00;;;26.40;77.40;;;;;;4826898;29;20528;-89
2021/06/14 11:22:47;;;;;;;4.33;3.20;;;26.40;74.70;;;;;;4826809;29;20509;-88
2021/06/14 11:25:28;;;;;;;3.33;3.03;;;26.30;75.70;;;;;;4828781;29;20286;-88
2021/06/14 11:27:55;;;;;;;3.50;3.20;;;26.50;74.70;;;;;;4814189;29;20428;-88
2021/06/14 11:30:47;;;;;;;3.40;3.10;;;26.30;72.50;;;;;;4813149;29;20449;-88
2021/06/14 11:33:27;;;;;;;3.20;2.90;;;26.40;79.70;;;;;;4812807;29;20544;-88
2021/06/14 11:35:59;;;;;;;3.53;3.23;;;26.50;72.80;;;;;;4813483;29;20448;-88
2021/06/14 11:38:25;;;;;;;4.97;3.10;;;26.70;73.60;;;;;;4800307;29;26113;-88
2021/06/14 11:40:58;;;;;;;3.50;3.20;;;26.90;76.30;;;;;;4814083;29;20483;-88
2021/06/14 11:43:25;;;;;;;3.53;3.23;;;27.00;68.60;;;;;;4813334;29;20460;-88
2021/06/14 11:45:53;;;;;;;5.13;3.30;;;26.80;70.00;;;;;;4827417;29;20449;-88
2021/06/14 11:48:22;;;;;;;3.60;3.10;;;26.90;75.20;;;;;;4812955;29;20730;-88
2021/06/14 11:50:48;;;;;;;3.93;3.53;;;26.90;69.90;;;;;;4816884;29;20476;-88
2021/06/14 11:53:15;;;;;;;3.90;3.50;;;27.00;72.70;;;;;;4810204;29;20441;-88
2021/06/14 11:55:44;;;;;;;4.03;3.17;;;27.20;71.20;;;;;;4812473;29;20452;-88
2021/06/14 11:58:11;;;;;;;4.50;3.10;;;27.20;70.10;;;;;;4812030;29;20552;-88
2021/06/14 12:00:40;;;;;;;4.40;3.10;;;27.10;68.70;;;;;;4827866;29;20523;-88
2021/06/14 12:03:22;;;;;;;3.37;3.03;;;27.40;74.00;;;;;;4814926;29;20465;-88
2021/06/14 12:05:49;;;;;;;4.00;3.57;;;27.50;69.40;;;;;;4826436;29;20898;-88
2021/06/14 12:08:21;;;;;;;4.60;3.00;;;27.40;65.20;;;;;;4811850;29;20487;-88
2021/06/14 12:10:48;;;;;;;3.60;3.00;;;27.60;69.30;;;;;;4826775;29;20476;-88
2021/06/14 12:13:19;;;;;;;3.20;2.60;;;27.60;68.80;;;;;;4827919;29;20500;-88
2021/06/14 12:15:48;;;;;;;4.33;3.03;;;27.90;59.80;;;;;;4826480;29;20468;-88
2021/06/14 12:18:14;;;;;;;5.50;3.40;;;27.40;62.50;;;;;;4826564;29;20467;-88
2021/06/14 12:20:44;;;;;;;4.30;3.60;;;27.50;68.00;;;;;;4827791;29;20515;-89
2021/06/14 12:23:16;;;;;;;3.37;3.03;;;27.60;68.70;;;;;;4828091;29;20449;-88
2021/06/14 12:25:47;;;;;;;3.90;2.90;;;27.90;63.80;;;;;;4813524;29;21043;-88
2021/06/14 12:28:16;;;;;;;3.20;2.90;;;28.20;67.80;;;;;;4810349;29;20444;-88
2021/06/14 12:30:58;;;;;;;3.23;2.93;;;28.60;67.20;;;;;;4826946;29;20509;-88
2021/06/14 12:33:30;;;;;;;3.00;2.80;;;28.40;56.40;;;;;;4811991;29;20437;-89
2021/06/14 12:35:57;;;;;;;4.60;3.10;;;28.50;64.70;;;;;;4825870;29;20579;-88
2021/06/14 12:38:24;;;;;;;3.33;3.03;;;28.30;61.60;;;;;;4825521;29;20480;-88
2021/06/14 12:40:51;;;;;;;3.60;3.30;;;28.50;60.20;;;;;;4826476;29;20510;-89
2021/06/14 12:43:16;;;;;;;3.10;2.90;;;28.50;62.30;;;;;;4811817;29;20444;-89
2021/06/14 12:45:44;;;;;;;3.30;3.03;;;28.70;63.20;;;;;;4802809;29;20471;-89
2021/06/14 12:48:12;;;;;;;5.20;3.07;;;28.50;58.60;;;;;;4826207;29;20202;-88
2021/06/14 12:50:47;;;;;;;4.83;3.43;;;28.40;62.40;;;;;;4810494;29;20449;-89
2021/06/14 12:53:18;;;;;;;3.70;3.03;;;28.20;59.60;;;;;;4824249;29;20451;-88
2021/06/14 12:55:44;;;;;;;3.63;3.33;;;28.90;57.40;;;;;;4822816;29;20461;-87
2021/06/14 12:58:14;;;;;;;3.30;2.87;;;28.00;55.90;;;;;;4824973;29;20456;-88
2021/06/14 13:00:42;;;;;;;2.70;2.50;;;27.60;57.60;;;;;;4808490;29;20486;-88
2021/06/14 13:03:08;;;;;;;3.30;2.83;;;28.20;67.30;;;;;;4826358;29;20491;-88
2021/06/14 13:05:36;;;;;;;3.17;2.87;;;28.90;58.30;;;;;;4809486;29;20461;-88
2021/06/14 13:08:04;;;;;;;3.30;2.60;;;29.40;57.80;;;;;;4822145;29;20476;-88
2021/06/14 13:10:35;;;;;;;3.60;3.03;;;29.80;54.40;;;;;;4825211;29;20918;-88
2021/06/14 13:13:36;;;;;;;4.73;3.03;;;30.30;57.70;;;;;;4811480;29;20800;-90
2021/06/14 13:16:07;;;;;;;3.53;3.23;;;29.80;56.70;;;;;;4817527;29;20440;-88
2021/06/14 13:18:37;;;;;;;4.13;3.23;;;29.30;59.00;;;;;;4816677;29;20497;-88
2021/06/14 13:21:11;;;;;;;3.40;2.93;;;29.50;55.90;;;;;;4829637;29;20496;-89
2021/06/14 13:24:12;;;;;;;4.83;3.00;;;30.00;58.90;;;;;;4815528;29;20431;-89
2021/06/14 13:26:42;;;;;;;3.33;2.93;;;30.00;55.90;;;;;;4762826;30;20469;-89
2021/06/14 13:29:28;;;;;;;4.10;3.70;;;30.30;53.90;;;;;;4818361;29;20445;-89